QRA weather

Rand Airport
Johannesburg, Gauteng, South Africa

Public forecast

Using degrees Celsius for public forecast. Weather courtesy of forecast.io.

METAR (pilot weather report)

Report is more than 6 hours old.

Retrieved 2019/02/20 10:00 UTC (1 day ago):

FAGM 201000Z 27008KT CAVOK 25/13 Q1025

TAF (pilot weather forecast)

Forecast is more than 12 hours old.

Closest forecast is OR Tambo International Airport, 8.0 nm (14.9 km) NE. Retrieved 2019/02/18 00:00 UTC (4 days ago):

TAF FAOR 182200Z 1900/2006 06008KT CAVOK TX25/1913Z TN13/1903Z PROB30 TEMPO 1902/1906 4000 BR BKN010 BECMG 1908/1910 30008KT SCT040 BECMG 1915/1917 22005KT FM191900 35008KT CAVOK